TimeEDT,TemperatureF,Dew PointF,Humidity,Sea Level PressureIn,VisibilityMPH,Wind Direction,Wind SpeedMPH,Gust SpeedMPH,PrecipitationIn,Events,Conditions,WindDirDegrees,DateUTC
12:53 AM,-0.0,-0.0,100,30.07,10.0,ESE,6.9,-,N/A,,Unknown,120,2013-08-25 04:53:00
1:53 AM,82.0,75.0,79,30.05,10.0,SE,8.1,-,N/A,,Unknown,130,2013-08-25 05:53:00
2:53 AM,41.0,41.0,100,30.04,10.0,ESE,3.5,-,N/A,,Unknown,120,2013-08-25 06:53:00
3:53 AM,82.0,75.0,79,30.04,10.0,Calm,Calm,-,N/A,,Unknown,0,2013-08-25 07:53:00
4:53 AM,79.0,75.9,90,30.06,10.0,NNW,5.8,-,N/A,,Unknown,340,2013-08-25 08:53:00
5:53 AM,79.0,77.0,94,30.08,10.0,NNW,6.9,-,0.00,,Unknown,330,2013-08-25 09:53:00
6:29 AM,78.8,77.0,94,30.08,10.0,North,4.6,-,N/A,Thunderstorm,Unknown,350,2013-08-25 10:29:00
6:53 AM,79.0,77.0,94,30.09,10.0,NNW,5.8,-,N/A,Thunderstorm,Unknown,340,2013-08-25 10:53:00
7:04 AM,78.8,75.2,89,30.09,10.0,NNW,8.1,-,N/A,,Unknown,340,2013-08-25 11:04:00
7:53 AM,77.0,72.0,84,30.11,10.0,North,5.8,-,N/A,,Mostly Cloudy,10,2013-08-25 11:53:00
8:53 AM,79.0,73.9,84,30.12,10.0,WNW,10.4,-,N/A,,Mostly Cloudy,300,2013-08-25 12:53:00
9:53 AM,79.0,73.9,84,30.15,10.0,North,8.1,-,N/A,,Mostly Cloudy,350,2013-08-25 13:53:00
10:53 AM,80.1,73.9,81,30.16,10.0,NE,5.8,-,0.00,,Mostly Cloudy,50,2013-08-25 14:53:00
11:53 AM,80.1,75.0,85,30.16,10.0,North,5.8,-,0.02,Rain,Light Rain,10,2013-08-25 15:53:00
12:53 PM,82.0,73.9,76,30.14,10.0,ENE,8.1,-,0.00,,Mostly Cloudy,60,2013-08-25 16:53:00
1:53 PM,84.0,73.9,72,30.12,10.0,ENE,9.2,-,N/A,,Mostly Cloudy,70,2013-08-25 17:53:00
2:53 PM,82.9,75.0,77,30.09,10.0,East,9.2,-,0.00,Rain,Light Rain,90,2013-08-25 18:53:00
3:53 PM,84.0,73.9,72,30.06,10.0,East,8.1,-,0.00,,Partly Cloudy,90,2013-08-25 19:53:00
4:53 PM,84.0,73.0,69,30.06,10.0,East,8.1,-,N/A,,Unknown,90,2013-08-25 20:53:00
5:53 PM,84.0,73.0,69,30.07,10.0,East,9.2,-,N/A,,Partly Cloudy,80,2013-08-25 21:53:00
6:53 PM,82.9,72.0,69,30.08,10.0,ENE,6.9,-,N/A,,Unknown,60,2013-08-25 22:53:00
7:53 PM,82.0,73.0,74,30.09,10.0,ENE,5.8,-,N/A,,Unknown,60,2013-08-25 23:53:00
8:53 PM,82.0,73.0,74,30.11,10.0,NE,8.1,-,N/A,,Unknown,50,2013-08-26 00:53:00
9:53 PM,82.0,73.0,74,30.12,10.0,ENE,6.9,-,N/A,,Unknown,60,2013-08-26 01:53:00
10:53 PM,82.0,73.9,76,30.13,10.0,NE,6.9,-,N/A,,Unknown,50,2013-08-26 02:53:00
11:53 PM,82.0,73.0,74,30.14,10.0,ENE,8.1,-,N/A,,Unknown,70,2013-08-26 03:53:00